createdAt,value
2023-03-05T00:01:36.356Z,50.37
2023-03-05T00:04:07.023Z,45.60
2023-03-05T00:06:35.362Z,44.60
2023-03-05T00:09:05.303Z,46.93
2023-03-05T00:11:34.173Z,46.87
2023-03-05T00:14:04.533Z,47.17
2023-03-05T00:16:33.612Z,44.90
2023-03-05T00:19:02.608Z,41.30
2023-03-05T00:21:34.545Z,44.47
2023-03-05T00:24:06.918Z,45.83
2023-03-05T00:26:38.993Z,44.70
2023-03-05T00:29:08.993Z,51.57
2023-03-05T00:31:38.250Z,46.97
2023-03-05T00:34:09.477Z,41.03
2023-03-05T00:36:41.715Z,48.67
2023-03-05T00:39:11.826Z,50.33
2023-03-05T00:41:40.086Z,51.30
2023-03-05T00:44:08.681Z,41.20
2023-03-05T00:46:37.805Z,43.17
2023-03-05T00:49:06.277Z,42.20
2023-03-05T00:51:35.003Z,41.10
2023-03-05T00:54:04.108Z,45.00
2023-03-05T00:56:34.222Z,54.27
2023-03-05T00:59:02.615Z,48.73
2023-03-05T01:01:31.591Z,45.67
2023-03-05T01:04:01.140Z,46.33
2023-03-05T01:06:30.009Z,40.97
2023-03-05T01:08:59.163Z,45.90
2023-03-05T01:11:27.587Z,42.80
2023-03-05T01:13:57.130Z,43.93
2023-03-05T01:16:25.410Z,39.27
2023-03-05T01:18:53.651Z,44.00
2023-03-05T01:21:22.022Z,43.73
2023-03-05T01:23:50.367Z,43.03
2023-03-05T01:26:18.555Z,39.53
2023-03-05T01:28:46.751Z,41.53
2023-03-05T01:31:16.415Z,37.50
2023-03-05T01:33:44.777Z,37.63
2023-03-05T01:36:16.693Z,44.73
2023-03-05T01:38:46.957Z,41.47
2023-03-05T01:41:17.670Z,43.77
2023-03-05T01:43:52.927Z,44.23
2023-03-05T01:46:32.500Z,45.60
2023-03-05T01:49:17.249Z,44.70
2023-03-05T01:51:56.475Z,39.73
2023-03-05T01:54:31.497Z,45.70
2023-03-05T01:57:03.315Z,38.93
2023-03-05T01:59:32.643Z,38.20
2023-03-05T02:02:03.914Z,45.83
2023-03-05T02:04:40.806Z,39.63
2023-03-05T02:07:09.974Z,47.43
2023-03-05T02:09:40.482Z,41.73
2023-03-05T02:12:11.632Z,42.57
2023-03-05T02:14:42.733Z,36.73
2023-03-05T02:17:12.938Z,38.70
2023-03-05T02:19:56.481Z,40.00
2023-03-05T02:22:26.210Z,44.10
2023-03-05T02:24:54.419Z,45.80
2023-03-05T02:27:34.733Z,35.93
2023-03-05T02:30:03.828Z,40.80
2023-03-05T02:32:32.007Z,38.90
2023-03-05T02:35:00.210Z,37.47
2023-03-05T02:37:30.327Z,39.23
2023-03-05T02:39:58.496Z,35.97
2023-03-05T02:42:27.146Z,40.67
2023-03-05T02:44:55.796Z,35.63
2023-03-05T02:47:23.907Z,31.10
2023-03-05T02:49:52.288Z,37.60
2023-03-05T02:52:20.628Z,41.53
2023-03-05T02:54:50.634Z,34.53
2023-03-05T02:57:19.621Z,41.27
2023-03-05T02:59:48.497Z,38.17
2023-03-05T03:02:17.937Z,40.23
2023-03-05T03:04:46.389Z,38.80
2023-03-05T03:07:16.168Z,35.87
2023-03-05T03:09:44.429Z,37.80
2023-03-05T03:12:14.067Z,40.33
2023-03-05T03:14:43.553Z,41.80
2023-03-05T03:17:14.512Z,41.43
2023-03-05T03:19:44.279Z,40.20
2023-03-05T03:22:15.346Z,39.20
2023-03-05T03:24:45.859Z,38.63
2023-03-05T03:27:15.382Z,37.17
2023-03-05T03:29:43.529Z,41.70
2023-03-05T03:32:11.777Z,38.73
2023-03-05T03:34:40.041Z,33.73
2023-03-05T03:37:08.969Z,37.23
2023-03-05T03:39:37.156Z,36.77
2023-03-05T03:42:06.162Z,41.37
2023-03-05T03:44:35.862Z,36.53
2023-03-05T03:47:04.051Z,40.93
2023-03-05T03:49:32.272Z,34.03
2023-03-05T03:52:00.472Z,36.17
2023-03-05T03:54:28.793Z,34.63
2023-03-05T03:56:56.900Z,36.17
2023-03-05T03:59:25.359Z,33.97
2023-03-05T04:01:54.820Z,31.60
2023-03-05T04:04:23.160Z,33.60
2023-03-05T04:06:51.283Z,34.83
2023-03-05T04:09:19.383Z,30.83
2023-03-05T04:11:47.597Z,31.80
2023-03-05T04:14:15.785Z,36.10
2023-03-05T04:16:44.031Z,30.23
2023-03-05T04:19:13.524Z,30.03
2023-03-05T04:21:41.716Z,32.57
2023-03-05T04:24:10.237Z,30.13
2023-03-05T04:26:38.447Z,31.00
2023-03-05T04:29:06.574Z,36.63
2023-03-05T04:31:34.832Z,31.33
2023-03-05T04:34:03.043Z,34.10
2023-03-05T04:36:32.594Z,32.57
2023-03-05T04:39:01.017Z,32.90
2023-03-05T04:41:29.239Z,34.70
2023-03-05T04:43:57.440Z,33.27
2023-03-05T04:46:25.652Z,31.37
2023-03-05T04:48:53.785Z,29.27
2023-03-05T04:51:21.970Z,34.10
2023-03-05T04:53:51.454Z,31.40
2023-03-05T04:56:19.617Z,34.40
2023-03-05T04:58:48.473Z,30.57
2023-03-05T05:01:17.431Z,35.67
2023-03-05T05:03:45.675Z,38.30
2023-03-05T05:06:13.890Z,35.33
2023-03-05T05:08:42.050Z,32.80
2023-03-05T05:11:15.292Z,29.70
2023-03-05T05:13:43.489Z,30.20
2023-03-05T05:16:11.675Z,28.43
2023-03-05T05:18:39.940Z,27.73
2023-03-05T05:21:12.480Z,32.47
2023-03-05T05:23:41.137Z,28.57
2023-03-05T05:26:14.187Z,28.83
2023-03-05T05:28:43.129Z,31.13
2023-03-05T05:31:13.830Z,28.37
2023-03-05T05:33:42.920Z,32.27
2023-03-05T05:36:14.783Z,27.70
2023-03-05T05:38:43.488Z,28.00
2023-03-05T05:41:16.661Z,32.90
2023-03-05T05:43:44.986Z,32.40
2023-03-05T05:46:15.982Z,33.53
2023-03-05T05:48:44.618Z,29.03
2023-03-05T05:51:15.848Z,29.57
2023-03-05T05:53:44.735Z,30.87
2023-03-05T05:56:16.550Z,32.83
2023-03-05T05:58:47.596Z,31.53
2023-03-05T06:01:18.736Z,33.37
2023-03-05T06:03:47.507Z,28.40
2023-03-05T06:06:19.288Z,27.30
2023-03-05T06:08:47.838Z,30.10
2023-03-05T06:11:19.338Z,27.37
2023-03-05T06:13:48.402Z,26.57
2023-03-05T06:16:20.514Z,23.07
2023-03-05T06:18:49.158Z,25.90
2023-03-05T06:21:19.266Z,28.93
2023-03-05T06:23:48.951Z,29.40
2023-03-05T06:26:20.767Z,24.07
2023-03-05T06:28:49.601Z,25.80
2023-03-05T06:31:21.803Z,27.13
2023-03-05T06:33:50.835Z,28.10
2023-03-05T06:36:22.968Z,24.17
2023-03-05T06:38:53.328Z,26.07
2023-03-05T06:41:27.776Z,34.07
2023-03-05T06:43:56.663Z,25.37
2023-03-05T06:46:26.954Z,27.83
2023-03-05T06:48:57.892Z,26.70
2023-03-05T06:51:28.629Z,27.20
2023-03-05T06:54:00.181Z,29.20
2023-03-05T06:56:29.990Z,28.37
2023-03-05T06:58:59.194Z,27.63
2023-03-05T07:01:27.484Z,25.50
2023-03-05T07:03:58.957Z,27.80
2023-03-05T07:06:28.544Z,25.80
2023-03-05T07:08:57.228Z,26.87
2023-03-05T07:11:26.485Z,28.83
2023-03-05T07:13:56.108Z,24.00
2023-03-05T07:16:27.569Z,29.40
2023-03-05T07:18:58.510Z,31.23
2023-03-05T07:21:30.174Z,27.13
2023-03-05T07:24:01.512Z,34.37
2023-03-05T07:26:33.345Z,29.30
2023-03-05T07:29:03.716Z,30.33
2023-03-05T07:31:32.444Z,31.27
2023-03-05T07:34:03.508Z,24.97
2023-03-05T07:36:34.863Z,31.80
2023-03-05T07:39:04.941Z,25.43
2023-03-05T07:41:33.295Z,25.80
2023-03-05T07:44:03.181Z,32.87
2023-03-05T07:46:33.963Z,26.57
2023-03-05T07:49:02.223Z,44.53
2023-03-05T07:51:30.497Z,35.30
2023-03-05T07:54:00.370Z,28.30
2023-03-05T07:56:31.756Z,28.20
2023-03-05T07:59:00.231Z,25.40
2023-03-05T08:01:30.440Z,24.03
2023-03-05T08:03:58.745Z,35.80
2023-03-05T08:06:27.079Z,28.40
2023-03-05T08:08:55.338Z,27.20
2023-03-05T08:11:23.670Z,29.30
2023-03-05T08:13:52.026Z,27.80
2023-03-05T08:16:22.650Z,23.00
2023-03-05T08:18:52.243Z,26.10
2023-03-05T08:21:22.952Z,28.97
2023-03-05T08:23:51.341Z,28.83
2023-03-05T08:26:22.996Z,26.63
2023-03-05T08:28:51.974Z,23.80
2023-03-05T08:31:22.870Z,34.53
2023-03-05T08:33:54.759Z,26.10
2023-03-05T08:36:23.423Z,30.47
2023-03-05T08:38:51.926Z,28.80
2023-03-05T08:41:21.037Z,26.47
2023-03-05T08:43:49.453Z,29.50
2023-03-05T08:46:18.386Z,26.30
2023-03-05T08:48:46.668Z,28.47
2023-03-05T08:51:18.936Z,25.90
2023-03-05T08:53:48.510Z,27.63
2023-03-05T08:56:17.754Z,27.80
2023-03-05T08:58:48.081Z,23.70
2023-03-05T09:01:16.854Z,35.07
2023-03-05T09:03:46.010Z,25.67
2023-03-05T09:06:15.488Z,24.70
2023-03-05T09:08:43.955Z,32.27
2023-03-05T09:11:14.639Z,35.70
2023-03-05T09:13:42.894Z,30.03
2023-03-05T09:16:15.919Z,22.43
2023-03-05T09:18:45.102Z,28.87
2023-03-05T09:21:17.958Z,27.50
2023-03-05T09:23:47.180Z,25.40
2023-03-05T09:26:19.104Z,23.40
2023-03-05T09:28:48.642Z,25.17
2023-03-05T09:31:16.930Z,27.07
2023-03-05T09:33:45.132Z,30.47
2023-03-05T09:36:26.124Z,27.87
2023-03-05T09:38:55.058Z,26.87
2023-03-05T09:41:37.223Z,31.67
2023-03-05T09:44:24.308Z,27.93
2023-03-05T09:47:10.104Z,24.53
2023-03-05T09:49:48.110Z,26.93
2023-03-05T09:52:23.970Z,67.27
2023-03-05T09:55:00.431Z,32.93
2023-03-05T09:57:48.343Z,26.10
2023-03-05T10:00:34.742Z,31.20
2023-03-05T10:03:08.672Z,30.30
2023-03-05T10:05:56.907Z,26.17
2023-03-05T10:08:42.906Z,30.23
2023-03-05T10:11:43.564Z,24.27
2023-03-05T10:14:23.230Z,26.77
2023-03-05T10:17:11.096Z,23.63
2023-03-05T10:20:16.991Z,30.77
2023-03-05T10:23:09.203Z,29.67
2023-03-05T10:25:57.468Z,28.60
2023-03-05T10:28:39.571Z,28.47
2023-03-05T10:31:24.891Z,23.37
2023-03-05T10:34:11.008Z,38.63
2023-03-05T10:36:58.256Z,32.90
2023-03-05T10:39:50.432Z,26.47
2023-03-05T10:42:31.175Z,38.63
2023-03-05T10:45:01.491Z,28.00
2023-03-05T10:47:38.814Z,33.27
2023-03-05T10:50:20.429Z,32.43
2023-03-05T10:52:55.655Z,28.27
2023-03-05T10:55:24.616Z,21.33
2023-03-05T10:57:54.176Z,27.40
2023-03-05T11:00:25.366Z,29.70
2023-03-05T11:03:01.009Z,26.53
2023-03-05T11:05:42.701Z,25.13
2023-03-05T11:08:30.867Z,29.33
2023-03-05T11:11:16.775Z,24.00
2023-03-05T11:13:59.451Z,31.07
2023-03-05T11:16:30.664Z,26.80
2023-03-05T11:19:19.501Z,25.60
2023-03-05T11:22:14.612Z,26.77
2023-03-05T11:24:43.410Z,35.50
2023-03-05T11:27:29.866Z,31.20
2023-03-05T11:30:00.665Z,30.93
2023-03-05T11:32:32.558Z,29.37
2023-03-05T11:35:00.909Z,30.63
2023-03-05T11:37:32.677Z,29.13
2023-03-05T11:40:20.468Z,31.10
2023-03-05T11:42:56.431Z,29.90
2023-03-05T11:45:27.634Z,29.40
2023-03-05T11:47:59.206Z,29.57
2023-03-05T11:50:30.172Z,33.23
2023-03-05T11:53:02.002Z,31.10
2023-03-05T11:55:35.655Z,55.20
2023-03-05T11:58:23.845Z,37.40
2023-03-05T12:00:53.747Z,29.83
2023-03-05T12:03:26.403Z,24.63
2023-03-05T12:05:59.439Z,30.43
2023-03-05T12:08:31.972Z,31.80
2023-03-05T12:11:05.456Z,27.43
2023-03-05T12:13:41.684Z,32.50
2023-03-05T12:16:29.416Z,25.67
2023-03-05T12:19:42.763Z,33.70
2023-03-05T12:22:19.825Z,34.00
2023-03-05T12:24:48.522Z,32.33
2023-03-05T12:27:33.735Z,27.10
2023-03-05T12:30:02.817Z,26.33
2023-03-05T12:33:03.294Z,29.63
2023-03-05T12:35:39.676Z,28.93
2023-03-05T12:38:32.901Z,23.70
2023-03-05T12:41:44.185Z,33.30
2023-03-05T12:44:23.648Z,32.63
2023-03-05T12:47:19.257Z,25.87
2023-03-05T12:50:01.034Z,28.93
2023-03-05T12:52:32.812Z,22.47
2023-03-05T12:55:21.277Z,24.07
2023-03-05T12:57:57.867Z,24.50
2023-03-05T13:00:33.756Z,20.70
2023-03-05T13:03:05.584Z,24.70
2023-03-05T13:05:39.724Z,22.63
2023-03-05T13:08:16.027Z,26.30
2023-03-05T13:10:51.929Z,31.63
2023-03-05T13:13:21.667Z,23.07
2023-03-05T13:15:51.782Z,20.77
2023-03-05T13:18:22.300Z,25.07
2023-03-05T13:21:04.475Z,24.23
2023-03-05T13:23:34.540Z,19.53
2023-03-05T13:26:12.060Z,24.40
2023-03-05T13:28:41.881Z,33.60
2023-03-05T13:31:17.688Z,29.97
2023-03-05T13:33:54.379Z,28.77
2023-03-05T13:36:27.327Z,31.23
2023-03-05T13:38:55.948Z,23.03
2023-03-05T13:41:27.274Z,27.43
2023-03-05T13:43:58.462Z,24.90
2023-03-05T13:46:31.159Z,24.57
2023-03-05T13:49:18.382Z,26.67
2023-03-05T13:51:51.660Z,24.30
2023-03-05T13:54:21.618Z,22.00
2023-03-05T13:56:55.765Z,19.57
2023-03-05T13:59:25.753Z,28.33
2023-03-05T14:01:54.332Z,27.20
2023-03-05T14:04:26.254Z,23.23
2023-03-05T14:07:00.563Z,28.53
2023-03-05T14:09:45.311Z,21.67
2023-03-05T14:12:30.384Z,26.20
2023-03-05T14:14:59.911Z,21.93
2023-03-05T14:17:40.252Z,20.37
2023-03-05T14:20:23.994Z,16.90
2023-03-05T14:22:57.136Z,21.27
2023-03-05T14:25:35.278Z,19.23
2023-03-05T14:28:06.485Z,18.97
2023-03-05T14:30:36.220Z,14.77
2023-03-05T14:33:05.456Z,19.33
2023-03-05T14:35:34.345Z,17.00
2023-03-05T14:38:04.493Z,21.37
2023-03-05T14:40:34.665Z,17.03
2023-03-05T14:43:04.358Z,17.00
2023-03-05T14:45:35.740Z,45.10
2023-03-05T14:48:07.547Z,98.73
2023-03-05T14:50:38.844Z,21.43
2023-03-05T14:53:15.108Z,21.23
2023-03-05T14:55:43.652Z,16.37
2023-03-05T14:58:15.995Z,19.73
2023-03-05T15:00:44.920Z,21.70
2023-03-05T15:03:14.310Z,16.50
2023-03-05T15:05:43.570Z,20.83
2023-03-05T15:08:17.794Z,23.10
2023-03-05T15:10:46.087Z,19.87
2023-03-05T15:13:15.791Z,20.47
2023-03-05T15:15:45.240Z,19.17
2023-03-05T15:18:15.124Z,19.60
2023-03-05T15:20:43.826Z,20.43
2023-03-05T15:23:12.914Z,22.23
2023-03-05T15:25:43.290Z,21.83
2023-03-05T15:28:12.015Z,17.63
2023-03-05T15:30:44.290Z,19.60
2023-03-05T15:33:15.450Z,21.13
2023-03-05T15:35:44.377Z,19.97
2023-03-05T15:38:13.035Z,16.93
2023-03-05T15:40:44.161Z,20.33
2023-03-05T15:43:13.167Z,17.43
2023-03-05T15:45:41.459Z,21.00
2023-03-05T15:48:09.978Z,16.93
2023-03-05T15:50:42.212Z,21.17
2023-03-05T15:53:16.310Z,20.07
2023-03-05T15:55:46.945Z,18.80
2023-03-05T15:58:17.444Z,21.10
2023-03-05T16:00:47.439Z,20.17
2023-03-05T16:03:16.171Z,17.70
2023-03-05T16:05:44.981Z,21.00
2023-03-05T16:08:13.746Z,21.50
2023-03-05T16:10:42.087Z,23.73
2023-03-05T16:13:15.908Z,24.97
2023-03-05T16:15:44.997Z,23.73
2023-03-05T16:18:16.573Z,18.70
2023-03-05T16:20:44.899Z,22.77
2023-03-05T16:23:13.212Z,20.77
2023-03-05T16:25:41.456Z,21.57
2023-03-05T16:28:11.526Z,23.77
2023-03-05T16:30:40.010Z,19.37
2023-03-05T16:33:08.274Z,19.80
2023-03-05T16:35:36.494Z,20.47
2023-03-05T16:38:05.177Z,23.43
2023-03-05T16:41:05.612Z,34.27
2023-03-05T16:43:27.279Z,17.20
2023-03-05T16:45:55.442Z,19.93
2023-03-05T16:48:23.993Z,18.07
2023-03-05T16:50:52.271Z,19.10
2023-03-05T16:53:21.093Z,24.60
2023-03-05T16:55:49.342Z,27.43
2023-03-05T16:58:17.557Z,20.87
2023-03-05T17:00:47.165Z,20.70
2023-03-05T17:03:15.354Z,18.57
2023-03-05T17:05:43.556Z,20.60
2023-03-05T17:08:11.748Z,18.33
2023-03-05T17:10:40.007Z,19.27
2023-03-05T17:13:08.205Z,25.40
2023-03-05T17:15:36.669Z,22.17
2023-03-05T17:18:06.577Z,20.20
2023-03-05T17:20:36.570Z,18.20
2023-03-05T17:23:04.815Z,17.83
2023-03-05T17:25:32.962Z,20.70
2023-03-05T17:28:01.271Z,20.97
2023-03-05T17:30:31.304Z,19.50
2023-03-05T17:32:59.626Z,22.10
2023-03-05T17:35:29.572Z,19.10
2023-03-05T17:37:58.222Z,17.87
2023-03-05T17:40:26.997Z,15.20
2023-03-05T17:42:55.206Z,29.63
2023-03-05T17:45:23.521Z,14.13
2023-03-05T17:47:52.964Z,19.00
2023-03-05T17:50:21.933Z,14.93
2023-03-05T17:52:51.491Z,18.73
2023-03-05T17:55:20.244Z,18.77
2023-03-05T17:57:48.938Z,17.00
2023-03-05T18:00:20.560Z,17.27
2023-03-05T18:02:49.520Z,23.07
2023-03-05T18:05:18.906Z,26.03
2023-03-05T18:07:47.221Z,23.17
2023-03-05T18:10:18.228Z,21.40
2023-03-05T18:12:46.704Z,15.20
2023-03-05T18:15:18.760Z,12.87
2023-03-05T18:17:46.897Z,21.93
2023-03-05T18:20:28.077Z,18.80
2023-03-05T18:22:58.491Z,18.37
2023-03-05T18:25:31.224Z,14.23
2023-03-05T18:28:00.715Z,13.37
2023-03-05T18:30:30.000Z,13.87
2023-03-05T18:32:58.870Z,18.43
2023-03-05T18:35:28.990Z,18.90
2023-03-05T18:37:57.461Z,15.03
2023-03-05T18:40:30.545Z,16.90
2023-03-05T18:43:01.629Z,25.07
2023-03-05T18:45:31.025Z,18.57
2023-03-05T18:47:59.200Z,20.23
2023-03-05T18:50:29.729Z,18.03
2023-03-05T18:52:58.134Z,20.90
2023-03-05T18:55:30.605Z,22.53
2023-03-05T18:58:02.968Z,26.23
2023-03-05T19:00:32.992Z,29.30
2023-03-05T19:03:03.441Z,28.63
2023-03-05T19:05:32.122Z,29.47
2023-03-05T19:08:01.197Z,16.77
2023-03-05T19:10:33.366Z,17.40
2023-03-05T19:13:15.715Z,19.43
2023-03-05T19:15:44.111Z,18.43
2023-03-05T19:18:13.168Z,18.40
2023-03-05T19:20:41.352Z,16.40
2023-03-05T19:23:09.607Z,20.13
2023-03-05T19:25:41.837Z,17.90
2023-03-05T19:28:09.971Z,21.97
2023-03-05T19:30:38.818Z,22.20
2023-03-05T19:33:06.964Z,20.23
2023-03-05T19:35:35.158Z,21.10
2023-03-05T19:38:03.321Z,18.10
2023-03-05T19:40:31.559Z,18.97
2023-03-05T19:43:01.393Z,17.83
2023-03-05T19:45:33.258Z,21.73
2023-03-05T19:48:01.572Z,20.80
2023-03-05T19:50:29.996Z,20.23
2023-03-05T19:52:58.083Z,23.80
2023-03-05T19:55:26.234Z,25.20
2023-03-05T19:57:54.340Z,22.47
2023-03-05T20:00:27.495Z,27.13
2023-03-05T20:02:55.624Z,18.80
2023-03-05T20:05:25.767Z,20.07
2023-03-05T20:07:54.208Z,27.07
2023-03-05T20:10:22.953Z,23.00
2023-03-05T20:12:51.620Z,36.43
2023-03-05T20:15:21.250Z,30.90
2023-03-05T20:17:53.856Z,24.30
2023-03-05T20:20:22.230Z,26.90
2023-03-05T20:22:50.529Z,21.10
2023-03-05T20:25:21.232Z,24.70
2023-03-05T20:27:49.493Z,26.53
2023-03-05T20:30:18.612Z,20.00
2023-03-05T20:32:46.935Z,26.30
2023-03-05T20:35:18.600Z,20.77
2023-03-05T20:38:00.247Z,23.47
2023-03-05T20:40:28.651Z,20.50
2023-03-05T20:42:56.811Z,34.60
2023-03-05T20:45:25.050Z,23.97
2023-03-05T20:47:53.252Z,20.80
2023-03-05T20:50:23.582Z,24.60
2023-03-05T20:52:51.775Z,22.20
2023-03-05T20:55:20.051Z,23.23
2023-03-05T20:57:48.279Z,22.20
2023-03-05T21:00:17.704Z,29.03
2023-03-05T21:02:45.906Z,24.80
2023-03-05T21:05:14.470Z,37.63
2023-03-05T21:07:44.075Z,34.77
2023-03-05T21:10:13.987Z,34.70
2023-03-05T21:12:42.132Z,30.10
2023-03-05T21:15:11.767Z,30.60
2023-03-05T21:17:41.740Z,32.33
2023-03-05T21:20:14.513Z,33.27
2023-03-05T21:22:44.121Z,31.60
2023-03-05T21:25:20.830Z,29.90
2023-03-05T21:27:55.963Z,31.60
2023-03-05T21:30:31.277Z,27.70
2023-03-05T21:33:00.779Z,24.43
2023-03-05T21:35:29.882Z,27.33
2023-03-05T21:37:59.486Z,21.27
2023-03-05T21:40:28.045Z,25.20
2023-03-05T21:42:56.637Z,25.63
2023-03-05T21:45:27.506Z,22.20
2023-03-05T21:47:56.252Z,22.43
2023-03-05T21:50:25.560Z,23.33
2023-03-05T21:52:54.259Z,26.93
2023-03-05T21:55:32.238Z,27.73
2023-03-05T21:58:00.818Z,22.53
2023-03-05T22:00:29.659Z,22.73
2023-03-05T22:02:57.819Z,26.00
2023-03-05T22:05:25.961Z,26.33
2023-03-05T22:07:54.131Z,24.93
2023-03-05T22:10:24.382Z,28.60
2023-03-05T22:13:03.041Z,26.43
2023-03-05T22:15:31.283Z,27.30
2023-03-05T22:17:59.467Z,21.50
2023-03-05T22:20:27.782Z,24.73
2023-03-05T22:22:55.929Z,23.53
2023-03-05T22:25:25.452Z,26.30
2023-03-05T22:27:53.676Z,24.50
2023-03-05T22:30:22.430Z,26.67
2023-03-05T22:32:51.517Z,24.77
2023-03-05T22:35:19.861Z,24.87
2023-03-05T22:37:48.053Z,28.43
2023-03-05T22:40:19.392Z,24.37
2023-03-05T22:42:49.816Z,27.27
2023-03-05T22:45:19.258Z,23.00
2023-03-05T22:47:49.874Z,24.63
2023-03-05T22:50:19.209Z,23.63
2023-03-05T22:52:47.894Z,26.30
2023-03-05T22:55:17.414Z,23.60
2023-03-05T22:57:47.765Z,26.67
2023-03-05T23:00:21.717Z,27.53
2023-03-05T23:02:50.382Z,33.37
2023-03-05T23:05:19.094Z,24.90
2023-03-05T23:07:47.728Z,23.40
2023-03-05T23:10:19.778Z,23.70
2023-03-05T23:12:52.534Z,26.57
2023-03-05T23:15:23.900Z,23.90
2023-03-05T23:17:52.249Z,26.13
2023-03-05T23:20:23.093Z,21.60
2023-03-05T23:22:53.588Z,27.73
2023-03-05T23:25:22.031Z,24.70
2023-03-05T23:27:52.239Z,23.07
2023-03-05T23:30:21.620Z,24.63
2023-03-05T23:32:52.861Z,25.80
2023-03-05T23:35:24.730Z,20.13
2023-03-05T23:37:53.780Z,26.00
2023-03-05T23:40:25.166Z,24.23
2023-03-05T23:42:55.468Z,22.90
2023-03-05T23:45:25.005Z,27.60
2023-03-05T23:47:53.705Z,26.43
2023-03-05T23:50:25.162Z,28.77
2023-03-05T23:52:54.236Z,27.63
2023-03-05T23:55:25.696Z,30.90
2023-03-05T23:57:56.024Z,21.67
